Time;durP1;ratioP1;P1;durP2;ratioP2;P2;SDS_P1;SDS_P2;PMS_P1;PMS_P2;Temp;Humidity;BMP_temperature;BMP_pressure;BME280_temperature;BME280_humidity;BME280_pressure;Samples;Min_cycle;Max_cycle;Signal;HPM_P1;HPM_P2
2023/04/18 00:01:51;;;;;;;18.57;16.10;;;7.50;99.90;;;;;;5032087;28;20470;-50
2023/04/18 00:04:18;;;;;;;22.57;16.77;;;7.30;99.90;;;;;;5032099;28;20865;-48
2023/04/18 00:06:45;;;;;;;21.80;16.50;;;7.10;99.90;;;;;;5032012;28;20438;-51
2023/04/18 00:09:11;;;;;;;23.77;17.57;;;7.40;99.90;;;;;;5031944;28;20474;-50
2023/04/18 00:11:38;;;;;;;21.00;16.60;;;7.40;99.90;;;;;;5032053;28;20459;-48
2023/04/18 00:14:05;;;;;;;23.50;17.90;;;7.10;99.90;;;;;;5031872;28;20439;-49
2023/04/18 00:16:33;;;;;;;23.20;17.90;;;7.30;99.90;;;;;;5031696;28;20463;-50
2023/04/18 00:19:01;;;;;;;19.23;16.83;;;6.60;99.90;;;;;;5031375;28;20406;-49
2023/04/18 00:21:28;;;;;;;19.93;16.63;;;7.40;99.90;;;;;;5032099;28;20451;-48
2023/04/18 00:23:55;;;;;;;19.20;15.90;;;7.50;99.90;;;;;;5031913;28;20442;-49
2023/04/18 00:26:22;;;;;;;20.33;16.23;;;7.10;99.90;;;;;;5031741;28;20444;-49
2023/04/18 00:28:51;;;;;;;22.70;17.07;;;7.10;99.90;;;;;;5031418;28;20405;-51
2023/04/18 00:31:17;;;;;;;22.60;17.30;;;6.90;99.90;;;;;;5031455;28;20454;-49
2023/04/18 00:33:45;;;;;;;22.90;16.83;;;7.00;99.90;;;;;;5030436;28;20415;-49
2023/04/18 00:36:12;;;;;;;22.73;18.13;;;6.80;99.90;;;;;;5031518;28;20480;-50
2023/04/18 00:38:41;;;;;;;22.60;15.90;;;7.30;99.90;;;;;;5031392;28;20415;-49
2023/04/18 00:41:08;;;;;;;21.33;16.90;;;7.10;99.90;;;;;;5030239;28;20470;-50
2023/04/18 00:43:35;;;;;;;21.03;16.70;;;6.90;99.90;;;;;;5031584;28;20405;-49
2023/04/18 00:46:02;;;;;;;21.70;17.27;;;7.20;99.90;;;;;;5031593;28;20409;-49
2023/04/18 00:48:29;;;;;;;21.23;16.10;;;7.00;99.90;;;;;;5031314;28;20412;-49
2023/04/18 00:50:59;;;;;;;21.43;16.40;;;7.20;99.90;;;;;;5031415;28;20535;-48
2023/04/18 00:53:25;;;;;;;24.90;18.27;;;6.90;99.90;;;;;;5031471;28;20528;-50
2023/04/18 00:55:53;;;;;;;20.63;16.77;;;6.80;99.90;;;;;;5030048;28;20462;-50
2023/04/18 00:58:20;;;;;;;18.43;16.17;;;6.90;99.90;;;;;;5029693;28;20850;-48
2023/04/18 01:00:47;;;;;;;19.50;16.50;;;7.10;99.90;;;;;;5029806;28;20465;-48
2023/04/18 01:03:17;;;;;;;21.67;16.97;;;6.40;99.90;;;;;;5031481;28;20444;-49
2023/04/18 01:05:45;;;;;;;22.13;17.37;;;6.60;99.90;;;;;;5031407;28;20528;-49
2023/04/18 01:08:13;;;;;;;24.37;15.60;;;7.10;99.90;;;;;;5031030;28;20477;-50
2023/04/18 01:10:40;;;;;;;19.10;15.70;;;7.10;99.90;;;;;;5029852;28;20474;-50
2023/04/18 01:13:12;;;;;;;23.50;17.50;;;6.80;99.90;;;;;;5031314;28;20515;-49
2023/04/18 01:15:40;;;;;;;24.87;17.20;;;7.10;99.90;;;;;;5029812;28;20457;-49
2023/04/18 01:18:07;;;;;;;20.20;16.50;;;7.20;99.90;;;;;;5029688;28;20416;-47
2023/04/18 01:20:35;;;;;;;21.10;16.80;;;7.30;99.90;;;;;;5031296;28;20532;-50
2023/04/18 01:23:02;;;;;;;19.83;17.17;;;7.10;99.90;;;;;;5031259;28;20418;-50
2023/04/18 01:25:31;;;;;;;20.73;15.67;;;7.20;99.90;;;;;;5031351;28;20918;-48
2023/04/18 01:27:58;;;;;;;20.40;16.57;;;7.00;99.90;;;;;;5031236;28;20409;-48
2023/04/18 01:30:27;;;;;;;22.70;17.40;;;7.00;99.90;;;;;;5033299;28;20556;-50
2023/04/18 01:32:54;;;;;;;21.70;16.30;;;7.00;99.90;;;;;;5033735;28;20428;-49
2023/04/18 01:35:21;;;;;;;22.90;17.57;;;7.10;99.90;;;;;;5033619;28;20776;-49
2023/04/18 01:37:47;;;;;;;21.10;17.27;;;7.30;99.90;;;;;;5033614;28;20415;-49
2023/04/18 01:40:14;;;;;;;19.93;16.20;;;7.40;99.90;;;;;;5034435;28;20460;-48
2023/04/18 01:42:42;;;;;;;21.90;18.13;;;6.80;99.90;;;;;;5033503;28;20432;-47
2023/04/18 01:45:11;;;;;;;20.20;16.97;;;6.70;99.90;;;;;;5034868;28;20420;-48
2023/04/18 01:47:39;;;;;;;21.87;17.30;;;7.30;99.90;;;;;;5034892;28;20437;-49
2023/04/18 01:50:07;;;;;;;21.90;18.23;;;6.60;99.90;;;;;;5033063;28;20469;-48
2023/04/18 01:52:34;;;;;;;21.77;15.73;;;7.10;99.90;;;;;;5033236;28;20974;-49
2023/04/18 01:55:02;;;;;;;20.60;16.37;;;6.90;99.90;;;;;;5034757;28;20762;-50
2023/04/18 01:57:29;;;;;;;19.23;16.40;;;7.00;99.90;;;;;;5033292;28;20787;-50
2023/04/18 01:59:57;;;;;;;21.67;17.17;;;7.00;99.90;;;;;;5033637;28;20457;-52
2023/04/18 02:02:24;;;;;;;18.43;16.07;;;7.10;99.90;;;;;;5033204;28;20434;-52
2023/04/18 02:04:51;;;;;;;20.07;15.80;;;7.30;99.90;;;;;;5033237;28;20556;-52
2023/04/18 02:07:18;;;;;;;19.10;15.87;;;6.80;99.90;;;;;;5033092;28;20457;-53
2023/04/18 02:09:45;;;;;;;24.87;15.87;;;6.90;99.90;;;;;;5032661;28;20456;-52
2023/04/18 02:12:11;;;;;;;20.43;16.07;;;7.50;99.90;;;;;;5033060;28;20824;-52
2023/04/18 02:14:39;;;;;;;20.00;15.70;;;7.20;99.90;;;;;;5033136;28;20491;-53
2023/04/18 02:17:07;;;;;;;18.67;15.70;;;7.10;99.90;;;;;;5033052;28;20474;-52
2023/04/18 02:19:33;;;;;;;20.57;15.80;;;7.20;99.90;;;;;;5033752;28;20456;-52
2023/04/18 02:22:01;;;;;;;19.80;15.27;;;7.10;99.90;;;;;;5033191;28;20867;-52
2023/04/18 02:24:27;;;;;;;20.60;16.77;;;7.30;99.90;;;;;;5034548;28;20434;-52
2023/04/18 02:26:54;;;;;;;20.20;16.30;;;7.10;99.90;;;;;;5032869;28;20428;-53
2023/04/18 02:29:20;;;;;;;22.67;17.03;;;7.10;99.90;;;;;;5033696;28;20416;-52
2023/04/18 02:31:47;;;;;;;21.17;16.90;;;6.90;99.90;;;;;;5032581;28;20451;-52
2023/04/18 02:34:16;;;;;;;18.77;15.37;;;7.20;99.90;;;;;;5032444;28;20431;-52
2023/04/18 02:36:42;;;;;;;18.43;15.20;;;7.20;99.90;;;;;;5032624;28;20488;-52
2023/04/18 02:39:10;;;;;;;18.73;15.67;;;7.00;99.90;;;;;;5032205;28;20415;-52
2023/04/18 02:41:38;;;;;;;18.87;15.13;;;6.80;99.90;;;;;;5033402;28;20447;-51
2023/04/18 02:44:05;;;;;;;16.90;15.10;;;7.00;99.90;;;;;;5033782;28;20881;-51
2023/04/18 02:46:34;;;;;;;18.40;14.97;;;7.10;99.90;;;;;;5032464;28;20433;-53
2023/04/18 02:49:03;;;;;;;17.10;15.00;;;7.10;99.90;;;;;;5031753;28;20436;-52
2023/04/18 02:51:30;;;;;;;19.67;14.60;;;6.90;99.90;;;;;;5033510;28;20440;-52
2023/04/18 02:53:58;;;;;;;19.90;15.27;;;7.20;99.90;;;;;;5032092;28;20429;-52
2023/04/18 02:56:30;;;;;;;16.97;15.13;;;6.60;99.90;;;;;;5032131;28;20486;-51
2023/04/18 02:59:14;;;;;;;20.83;15.60;;;6.70;99.90;;;;;;5031468;28;20848;-52
2023/04/18 03:02:07;;;;;;;20.60;16.27;;;6.90;99.90;;;;;;5002685;28;20500;-51
2023/04/18 03:04:36;;;;;;;17.20;14.00;;;6.90;99.90;;;;;;5031922;28;20462;-52
2023/04/18 03:07:07;;;;;;;22.03;14.90;;;7.00;99.90;;;;;;5031962;28;20499;-52
2023/04/18 03:09:36;;;;;;;21.77;15.13;;;7.20;99.90;;;;;;5031369;28;20419;-52
2023/04/18 03:12:09;;;;;;;20.90;15.60;;;7.20;99.90;;;;;;5031755;28;20428;-51
2023/04/18 03:14:36;;;;;;;19.37;15.50;;;7.20;99.90;;;;;;5031714;28;20478;-52
2023/04/18 03:17:03;;;;;;;21.40;15.83;;;7.20;99.90;;;;;;5031690;28;20542;-52
2023/04/18 03:19:36;;;;;;;20.33;16.63;;;7.40;99.90;;;;;;5031227;28;20510;-51
2023/04/18 03:22:08;;;;;;;19.43;15.47;;;6.70;99.90;;;;;;5031442;28;20885;-52
2023/04/18 03:24:40;;;;;;;18.87;15.80;;;7.20;99.90;;;;;;5031405;28;20483;-51
2023/04/18 03:27:08;;;;;;;18.80;14.70;;;7.10;99.90;;;;;;5031297;28;20846;-51
2023/04/18 03:29:37;;;;;;;17.80;14.80;;;7.30;99.90;;;;;;5031026;28;20470;-51
2023/04/18 03:32:04;;;;;;;20.93;14.90;;;7.60;99.90;;;;;;5031390;28;20468;-52
2023/04/18 03:34:31;;;;;;;18.27;15.17;;;7.10;99.90;;;;;;5031425;28;20492;-52
2023/04/18 03:36:58;;;;;;;20.77;16.77;;;7.30;99.90;;;;;;5031332;28;20458;-51
2023/04/18 03:39:29;;;;;;;20.50;15.50;;;7.20;99.90;;;;;;5030891;28;20435;-52
2023/04/18 03:41:56;;;;;;;20.47;14.90;;;7.50;99.90;;;;;;5031040;28;20518;-52
2023/04/18 03:44:23;;;;;;;18.70;14.63;;;7.30;99.90;;;;;;5031155;28;20453;-51
2023/04/18 03:46:50;;;;;;;18.67;15.07;;;7.20;99.90;;;;;;5030934;28;20436;-51
2023/04/18 03:49:17;;;;;;;19.47;14.10;;;7.10;99.90;;;;;;5030654;28;20841;-52
2023/04/18 03:51:46;;;;;;;24.10;15.77;;;7.30;99.90;;;;;;5031584;28;20439;-51
2023/04/18 03:54:13;;;;;;;18.40;14.37;;;7.60;99.90;;;;;;5030866;28;20793;-51
2023/04/18 03:56:41;;;;;;;21.13;16.03;;;7.00;99.90;;;;;;5030611;28;21001;-51
2023/04/18 03:59:09;;;;;;;20.03;14.27;;;6.70;99.90;;;;;;5030693;28;20496;-52
2023/04/18 04:01:36;;;;;;;19.20;14.67;;;6.90;99.90;;;;;;5030616;28;20525;-51
2023/04/18 04:04:02;;;;;;;17.70;14.80;;;7.20;99.90;;;;;;5031926;28;20504;-51
2023/04/18 04:06:30;;;;;;;17.60;13.93;;;7.00;99.90;;;;;;5032111;28;20410;-53
2023/04/18 04:08:56;;;;;;;17.20;14.13;;;7.30;99.90;;;;;;5031578;28;20881;-52
2023/04/18 04:11:25;;;;;;;18.50;16.27;;;7.00;99.90;;;;;;5030409;28;20461;-51
2023/04/18 04:13:54;;;;;;;18.60;14.50;;;7.20;99.90;;;;;;5030712;28;20439;-53
2023/04/18 04:16:25;;;;;;;22.43;16.43;;;7.10;99.90;;;;;;5030427;28;20457;-51
2023/04/18 04:18:54;;;;;;;16.23;14.13;;;7.00;99.90;;;;;;5030160;28;20432;-49
2023/04/18 04:21:26;;;;;;;20.83;15.97;;;6.80;99.90;;;;;;5030474;28;20478;-51
2023/04/18 04:23:53;;;;;;;18.97;14.67;;;6.90;99.90;;;;;;5030711;28;20479;-52
2023/04/18 04:26:27;;;;;;;22.80;15.37;;;7.20;99.90;;;;;;5030253;28;20471;-51
2023/04/18 04:29:03;;;;;;;19.60;15.67;;;6.90;99.90;;;;;;5029945;28;20460;-51
2023/04/18 04:31:32;;;;;;;20.40;14.13;;;7.50;99.90;;;;;;5030618;28;20456;-53
2023/04/18 04:33:59;;;;;;;20.07;16.40;;;7.20;99.90;;;;;;5030665;28;20515;-53
2023/04/18 04:36:26;;;;;;;16.90;15.10;;;6.80;99.90;;;;;;5030127;28;20473;-52
2023/04/18 04:38:54;;;;;;;19.20;15.47;;;6.90;99.90;;;;;;5030128;28;20447;-51
2023/04/18 04:41:30;;;;;;;18.20;16.20;;;7.30;99.90;;;;;;5030217;28;20461;-52
2023/04/18 04:43:58;;;;;;;20.53;15.10;;;6.90;99.90;;;;;;5030281;28;20463;-52
2023/04/18 04:46:30;;;;;;;15.73;13.97;;;6.90;99.90;;;;;;5030188;28;20944;-53
2023/04/18 04:48:59;;;;;;;21.83;15.87;;;6.80;99.90;;;;;;5029892;28;20420;-52
2023/04/18 04:51:26;;;;;;;18.17;15.23;;;6.90;99.90;;;;;;5030054;28;20478;-52
2023/04/18 04:53:53;;;;;;;19.03;16.57;;;7.10;99.90;;;;;;5030297;28;20428;-52
2023/04/18 04:56:21;;;;;;;21.63;16.33;;;6.90;99.90;;;;;;5029606;28;20480;-51
2023/04/18 04:58:49;;;;;;;18.07;14.50;;;6.50;99.90;;;;;;5029736;28;20508;-52
2023/04/18 05:01:33;;;;;;;18.77;15.70;;;6.70;99.90;;;;;;5029931;28;20493;-53
2023/04/18 05:03:59;;;;;;;20.50;16.43;;;6.80;99.90;;;;;;5031763;28;21060;-52
2023/04/18 05:06:26;;;;;;;21.03;18.50;;;6.70;99.90;;;;;;5035589;28;20786;-53
2023/04/18 05:08:54;;;;;;;23.57;16.63;;;6.90;99.90;;;;;;5034953;28;20416;-51
2023/04/18 05:11:21;;;;;;;18.70;16.00;;;6.70;99.90;;;;;;5035045;28;20499;-52
2023/04/18 05:13:48;;;;;;;20.07;16.50;;;6.80;99.90;;;;;;5035160;28;20521;-51
2023/04/18 05:16:14;;;;;;;23.53;17.53;;;6.80;99.90;;;;;;5035382;28;20426;-53
2023/04/18 05:18:42;;;;;;;20.50;16.80;;;6.90;99.90;;;;;;5034797;28;20450;-52
2023/04/18 05:21:09;;;;;;;24.13;17.23;;;7.10;99.90;;;;;;5034932;28;20450;-53
2023/04/18 05:23:36;;;;;;;17.93;16.03;;;6.90;99.90;;;;;;5034790;28;20439;-51
2023/04/18 05:26:02;;;;;;;20.13;15.90;;;6.60;99.90;;;;;;5034838;28;20762;-52
2023/04/18 05:28:29;;;;;;;23.13;17.80;;;7.10;99.90;;;;;;5034376;28;20401;-52
2023/04/18 05:30:59;;;;;;;18.60;16.17;;;7.20;99.90;;;;;;5034841;28;20531;-51
2023/04/18 05:33:26;;;;;;;20.80;15.87;;;7.20;99.90;;;;;;5034384;28;20416;-52
2023/04/18 05:35:54;;;;;;;17.23;15.43;;;7.30;99.90;;;;;;5034539;28;20508;-52
2023/04/18 05:38:21;;;;;;;23.43;16.53;;;7.10;99.90;;;;;;5034414;28;20483;-51
2023/04/18 05:40:49;;;;;;;24.23;15.47;;;7.00;99.90;;;;;;5034786;28;20525;-53
2023/04/18 05:43:16;;;;;;;22.77;15.87;;;7.70;99.90;;;;;;5034833;28;20850;-53
2023/04/18 05:45:43;;;;;;;19.03;16.33;;;7.30;99.90;;;;;;5034075;28;20409;-53
2023/04/18 05:48:10;;;;;;;16.90;14.40;;;7.60;99.90;;;;;;5034130;28;20444;-55
2023/04/18 05:50:36;;;;;;;33.80;18.93;;;7.40;99.90;;;;;;5034330;28;20429;-51
2023/04/18 05:53:04;;;;;;;39.83;16.50;;;7.70;99.90;;;;;;5034214;28;20432;-53
2023/04/18 05:55:31;;;;;;;19.20;15.67;;;7.50;99.90;;;;;;5033258;28;20447;-53
2023/04/18 05:57:58;;;;;;;28.13;15.43;;;7.40;99.90;;;;;;5032619;28;20456;-53
2023/04/18 06:00:24;;;;;;;19.43;14.90;;;7.60;99.90;;;;;;5033585;28;20446;-51
2023/04/18 06:02:51;;;;;;;26.77;18.67;;;7.70;99.90;;;;;;5034988;28;21160;-50
2023/04/18 06:05:18;;;;;;;19.83;16.23;;;8.00;99.90;;;;;;5034756;28;20408;-53
2023/04/18 06:07:44;;;;;;;20.43;14.73;;;8.00;99.90;;;;;;5034174;28;20406;-54
2023/04/18 06:10:12;;;;;;;16.37;14.00;;;7.90;99.90;;;;;;5033592;28;20434;-50
2023/04/18 06:12:39;;;;;;;18.00;14.93;;;8.00;99.90;;;;;;5033924;28;20493;-54
2023/04/18 06:15:07;;;;;;;17.73;15.60;;;8.00;99.90;;;;;;5033217;28;20412;-54
2023/04/18 06:17:33;;;;;;;20.53;15.67;;;7.90;99.90;;;;;;5034222;28;20873;-52
2023/04/18 06:20:00;;;;;;;20.53;14.90;;;8.20;99.90;;;;;;5033348;28;20440;-52
2023/04/18 06:22:27;;;;;;;19.50;15.33;;;8.40;99.90;;;;;;5033758;28;20415;-52
2023/04/18 06:24:54;;;;;;;17.30;14.90;;;7.90;99.90;;;;;;5033621;28;20409;-53
2023/04/18 06:27:22;;;;;;;23.10;14.00;;;8.10;99.90;;;;;;5033812;28;20710;-53
2023/04/18 06:29:49;;;;;;;17.97;14.50;;;8.10;99.90;;;;;;5033250;28;20437;-52
2023/04/18 06:32:15;;;;;;;18.40;15.23;;;7.90;99.90;;;;;;5033570;28;20503;-52
2023/04/18 06:34:43;;;;;;;19.13;14.03;;;8.80;99.90;;;;;;5033599;28;20426;-52
2023/04/18 06:37:10;;;;;;;19.83;14.20;;;8.40;99.90;;;;;;5033438;28;21002;-53
2023/04/18 06:39:37;;;;;;;15.67;13.90;;;8.40;99.90;;;;;;5033057;28;20448;-53
2023/04/18 06:42:04;;;;;;;15.87;13.33;;;8.70;99.90;;;;;;5033418;28;20414;-53
2023/04/18 06:44:32;;;;;;;15.17;12.97;;;8.90;99.90;;;;;;5033268;28;20402;-52
2023/04/18 06:46:59;;;;;;;15.80;13.57;;;8.20;99.90;;;;;;5031606;28;20473;-51
2023/04/18 06:49:25;;;;;;;17.43;13.90;;;8.50;99.90;;;;;;5032920;28;20617;-53
2023/04/18 06:51:52;;;;;;;18.57;14.33;;;8.60;99.90;;;;;;5032971;28;20533;-54
2023/04/18 06:54:19;;;;;;;15.67;14.03;;;9.00;99.90;;;;;;5032990;28;20453;-51
2023/04/18 06:56:45;;;;;;;18.90;14.53;;;8.40;99.90;;;;;;5033235;28;20441;-52
2023/04/18 06:59:12;;;;;;;16.00;14.30;;;8.90;99.90;;;;;;5032899;28;20406;-53
2023/04/18 07:01:41;;;;;;;14.53;13.03;;;9.20;99.90;;;;;;5032981;28;20445;-52
2023/04/18 07:04:08;;;;;;;15.60;13.97;;;9.40;99.90;;;;;;5032885;28;20431;-52
2023/04/18 07:06:35;;;;;;;18.37;13.33;;;9.20;99.90;;;;;;5032892;28;20939;-52
2023/04/18 07:09:02;;;;;;;15.53;13.87;;;9.20;99.90;;;;;;5030916;28;20426;-51
2023/04/18 07:11:29;;;;;;;17.30;13.53;;;9.30;99.90;;;;;;5032740;28;20976;-54
2023/04/18 07:13:55;;;;;;;15.17;13.50;;;9.20;99.90;;;;;;5032555;28;20442;-53
2023/04/18 07:16:22;;;;;;;13.43;12.03;;;8.90;99.90;;;;;;5032756;28;20430;-51
2023/04/18 07:18:50;;;;;;;15.80;13.13;;;9.50;99.90;;;;;;5032457;28;20861;-54
2023/04/18 07:21:18;;;;;;;17.10;13.10;;;9.50;99.90;;;;;;5032371;28;20990;-54
2023/04/18 07:23:44;;;;;;;16.43;12.57;;;9.60;99.90;;;;;;5032439;28;20755;-52
2023/04/18 07:26:12;;;;;;;15.13;12.20;;;9.20;99.90;;;;;;5032417;28;20410;-52
2023/04/18 07:28:39;;;;;;;17.20;14.50;;;9.50;99.90;;;;;;5032158;28;20402;-53
2023/04/18 07:31:10;;;;;;;14.53;12.70;;;9.40;99.90;;;;;;5032275;28;20424;-51
2023/04/18 07:33:37;;;;;;;18.87;14.27;;;9.60;99.90;;;;;;5032648;28;20433;-52
2023/04/18 07:36:05;;;;;;;17.77;13.93;;;9.90;99.90;;;;;;5032476;28;20406;-54
2023/04/18 07:38:34;;;;;;;19.20;13.00;;;9.50;99.90;;;;;;5031254;28;20454;-52
2023/04/18 07:41:01;;;;;;;14.77;13.17;;;9.90;99.90;;;;;;5032133;28;20457;-52
2023/04/18 07:43:28;;;;;;;14.77;12.13;;;10.00;99.90;;;;;;5031657;28;20409;-53
2023/04/18 07:45:55;;;;;;;15.40;12.80;;;9.50;99.90;;;;;;5031485;28;20450;-54
2023/04/18 07:48:22;;;;;;;16.47;13.37;;;10.00;99.90;;;;;;5031276;28;20411;-54
2023/04/18 07:50:48;;;;;;;13.83;12.00;;;10.10;99.90;;;;;;5031331;28;20476;-55
2023/04/18 07:53:17;;;;;;;15.27;11.77;;;9.90;99.90;;;;;;5031335;28;20458;-52
2023/04/18 07:55:44;;;;;;;19.60;12.70;;;10.30;99.90;;;;;;5031753;28;20424;-52
2023/04/18 07:58:10;;;;;;;14.90;12.90;;;10.50;99.90;;;;;;5031826;28;20482;-52
2023/04/18 08:00:38;;;;;;;13.70;12.30;;;10.50;99.90;;;;;;5032445;28;20467;-51
2023/04/18 08:03:06;;;;;;;19.43;13.63;;;10.40;99.90;;;;;;5031856;28;20446;-47
2023/04/18 08:05:32;;;;;;;15.73;14.03;;;10.60;99.90;;;;;;5032022;28;20432;-49
2023/04/18 08:07:59;;;;;;;14.87;12.53;;;10.10;99.90;;;;;;5031807;28;20434;-48
2023/04/18 08:10:27;;;;;;;13.50;12.10;;;10.70;99.90;;;;;;5031554;28;20437;-49
2023/04/18 08:12:54;;;;;;;13.63;12.23;;;10.40;99.90;;;;;;5032082;28;20423;-49
2023/04/18 08:15:21;;;;;;;15.90;13.13;;;10.50;99.90;;;;;;5032318;28;20432;-50
2023/04/18 08:17:47;;;;;;;17.43;13.57;;;10.30;99.90;;;;;;5032783;28;20476;-49
2023/04/18 08:20:14;;;;;;;18.53;13.53;;;10.40;99.90;;;;;;5031444;28;20957;-49
2023/04/18 08:22:42;;;;;;;14.07;12.60;;;10.60;99.90;;;;;;5031990;28;20892;-48
2023/04/18 08:25:09;;;;;;;17.83;12.30;;;10.50;99.90;;;;;;5029464;28;20828;-49
2023/04/18 08:27:37;;;;;;;15.90;13.57;;;10.40;99.90;;;;;;5031817;28;20415;-49
2023/04/18 08:30:05;;;;;;;18.20;13.53;;;10.40;99.90;;;;;;5031876;28;20498;-47
2023/04/18 08:32:32;;;;;;;22.87;13.67;;;10.60;99.90;;;;;;5031712;28;20432;-51
2023/04/18 08:34:59;;;;;;;18.47;13.07;;;10.50;99.90;;;;;;5037424;28;20442;-50
2023/04/18 08:37:26;;;;;;;19.73;12.57;;;10.70;99.90;;;;;;5042559;28;20454;-51
2023/04/18 08:39:53;;;;;;;20.43;12.83;;;10.70;99.90;;;;;;5041602;28;20812;-49
2023/04/18 08:42:21;;;;;;;13.83;12.30;;;10.70;99.90;;;;;;5040357;28;20441;-49
2023/04/18 08:44:50;;;;;;;18.67;11.60;;;10.40;99.90;;;;;;5032358;28;20452;-49
2023/04/18 08:47:18;;;;;;;14.30;12.80;;;11.10;99.90;;;;;;5029010;28;20518;-49
2023/04/18 08:49:45;;;;;;;14.30;12.90;;;11.30;99.90;;;;;;5031052;28;20518;-51
2023/04/18 08:52:13;;;;;;;18.60;13.27;;;10.90;99.90;;;;;;5030923;28;20503;-51
2023/04/18 08:54:41;;;;;;;17.70;13.00;;;11.50;99.90;;;;;;5029635;28;20441;-50
2023/04/18 08:57:11;;;;;;;18.47;13.57;;;11.60;99.90;;;;;;5036063;28;20779;-50
2023/04/18 08:59:38;;;;;;;13.70;12.23;;;10.90;99.90;;;;;;5019809;28;20491;-49
2023/04/18 09:02:08;;;;;;;16.20;11.70;;;11.20;99.90;;;;;;5024835;28;20455;-49
2023/04/18 09:04:37;;;;;;;16.63;13.02;;;11.30;99.90;;;;;;5030366;28;20508;-50
2023/04/18 09:07:05;;;;;;;16.43;12.63;;;11.30;99.90;;;;;;5030841;28;20213;-49
2023/04/18 09:09:46;;;;;;;14.40;12.23;;;11.10;99.90;;;;;;5030395;28;20416;-50
2023/04/18 09:12:17;;;;;;;15.60;12.63;;;11.20;99.90;;;;;;5030637;28;20433;-52
2023/04/18 09:14:45;;;;;;;14.40;12.30;;;11.30;99.90;;;;;;5030759;28;20417;-51
2023/04/18 09:17:17;;;;;;;15.10;12.10;;;11.60;99.90;;;;;;5030828;28;20504;-51
2023/04/18 09:19:49;;;;;;;16.20;12.90;;;11.60;99.90;;;;;;5029860;28;20456;-51
2023/04/18 09:22:16;;;;;;;20.70;13.90;;;12.00;99.90;;;;;;5022096;28;20455;-50
2023/04/18 09:24:49;;;;;;;40.70;15.20;;;11.80;99.90;;;;;;5022260;28;20452;-51
2023/04/18 09:27:15;;;;;;;14.00;10.73;;;11.70;99.90;;;;;;5028416;28;20453;-51
2023/04/18 09:29:45;;;;;;;17.00;12.10;;;12.00;99.90;;;;;;5041279;28;20421;-50
2023/04/18 09:32:19;;;;;;;15.07;11.63;;;12.40;99.90;;;;;;5019551;28;20423;-53
2023/04/18 09:34:46;;;;;;;12.60;11.23;;;12.30;99.90;;;;;;5029978;28;20435;-51
2023/04/18 09:37:13;;;;;;;13.23;11.83;;;12.30;99.90;;;;;;5030838;28;20447;-52
2023/04/18 09:39:43;;;;;;;15.43;11.60;;;12.30;99.90;;;;;;5030213;28;20482;-52
2023/04/18 09:42:10;;;;;;;15.33;10.70;;;12.60;99.90;;;;;;5031020;28;20434;-53
2023/04/18 09:44:37;;;;;;;12.70;11.17;;;12.40;99.90;;;;;;5030830;28;20409;-53
2023/04/18 09:47:05;;;;;;;14.07;12.60;;;12.60;99.90;;;;;;5030239;28;20421;-53
2023/04/18 09:49:33;;;;;;;15.60;12.07;;;12.30;99.90;;;;;;5050164;28;20414;-51
2023/04/18 09:52:04;;;;;;;14.47;12.00;;;12.30;99.90;;;;;;5045373;28;20472;-52
2023/04/18 09:54:32;;;;;;;16.43;11.87;;;12.70;99.90;;;;;;5027453;28;20439;-52
2023/04/18 09:57:01;;;;;;;21.30;13.03;;;12.70;99.90;;;;;;5029656;28;20415;-52
2023/04/18 09:59:36;;;;;;;14.05;11.38;;;12.60;99.90;;;;;;5032599;28;20746;-53
2023/04/18 10:02:05;;;;;;;13.40;12.10;;;12.50;99.90;;;;;;5039177;28;20208;-51
2023/04/18 10:04:34;;;;;;;16.60;13.10;;;12.20;99.90;;;;;;5017393;28;20442;-51
2023/04/18 10:07:02;;;;;;;17.13;11.57;;;12.70;99.90;;;;;;5032588;28;20483;-50
2023/04/18 10:09:32;;;;;;;16.03;12.70;;;12.70;99.90;;;;;;5031566;28;20793;-51
2023/04/18 10:12:01;;;;;;;17.83;12.40;;;13.20;99.90;;;;;;5033537;28;20441;-51
2023/04/18 10:14:28;;;;;;;13.87;12.37;;;12.80;99.90;;;;;;5033952;28;20409;-51
2023/04/18 10:16:56;;;;;;;14.43;13.00;;;13.30;99.90;;;;;;5033774;28;20911;-51
2023/04/18 10:19:24;;;;;;;13.67;11.63;;;13.10;99.90;;;;;;5033447;28;20491;-50
2023/04/18 10:21:53;;;;;;;12.63;11.33;;;13.20;99.90;;;;;;5033269;28;21012;-52
2023/04/18 10:24:46;;;;;;;13.60;12.20;;;13.10;99.90;;;;;;5031331;28;20467;-51
2023/04/18 10:27:13;;;;;;;15.30;11.70;;;13.30;99.90;;;;;;5013662;28;20963;-51
2023/04/18 10:29:46;;;;;;;13.67;12.27;;;13.00;99.90;;;;;;5013728;28;20437;-51
2023/04/18 10:32:13;;;;;;;13.63;12.20;;;13.60;99.90;;;;;;5019979;28;20930;-52
2023/04/18 10:34:40;;;;;;;12.50;11.20;;;14.00;99.90;;;;;;5033651;28;20949;-52
2023/04/18 10:37:08;;;;;;;14.20;12.30;;;13.40;99.90;;;;;;5033465;28;20411;-52
2023/04/18 10:39:49;;;;;;;15.33;11.70;;;14.10;99.90;;;;;;5032595;28;20995;-51
2023/04/18 10:42:16;;;;;;;15.97;11.80;;;13.50;99.90;;;;;;5034617;28;20435;-51
2023/04/18 10:44:42;;;;;;;12.70;11.00;;;14.10;99.90;;;;;;5038031;28;20436;-51
2023/04/18 10:47:20;;;;;;;12.23;11.03;;;13.50;99.90;;;;;;5031704;28;20448;-52
2023/04/18 10:49:59;;;;;;;14.13;12.63;;;13.80;99.90;;;;;;5032763;28;20459;-52
2023/04/18 10:52:31;;;;;;;12.83;10.50;;;14.10;99.90;;;;;;5031771;28;20553;-53
2023/04/18 10:55:14;;;;;;;12.57;11.37;;;14.10;99.90;;;;;;5033412;28;20913;-51
2023/04/18 10:57:43;;;;;;;12.30;10.23;;;13.70;99.90;;;;;;5032348;28;20477;-52
2023/04/18 11:00:12;;;;;;;14.03;10.90;;;13.80;99.90;;;;;;5030040;28;20594;-51
2023/04/18 11:02:40;;;;;;;13.03;11.30;;;14.00;99.90;;;;;;5033172;28;20436;-51
2023/04/18 11:05:09;;;;;;;14.70;11.40;;;14.00;99.90;;;;;;5031483;28;20543;-51
2023/04/18 11:07:43;;;;;;;12.73;11.40;;;13.80;99.90;;;;;;5023771;28;20419;-51
2023/04/18 11:10:11;;;;;;;12.20;10.90;;;14.10;99.90;;;;;;5011397;28;20520;-52
2023/04/18 11:12:39;;;;;;;13.07;11.57;;;13.90;99.90;;;;;;5013581;28;20933;-52
2023/04/18 11:15:10;;;;;;;13.43;12.10;;;14.00;99.90;;;;;;5031907;28;20426;-52
2023/04/18 11:17:38;;;;;;;12.93;11.30;;;14.30;99.90;;;;;;5030672;28;20452;-52
2023/04/18 11:20:09;;;;;;;14.40;11.80;;;14.50;99.90;;;;;;5032309;28;20483;-52
2023/04/18 11:22:46;;;;;;;13.00;11.60;;;14.20;99.90;;;;;;5031090;28;20435;-51
2023/04/18 11:25:16;;;;;;;37.03;32.17;;;14.20;99.90;;;;;;5032765;28;20402;-53
2023/04/18 11:27:47;;;;;;;10.53;9.60;;;14.30;99.90;;;;;;5032367;28;20780;-51
2023/04/18 11:30:15;;;;;;;13.30;11.17;;;14.30;99.90;;;;;;5030982;28;20522;-52
2023/04/18 11:32:42;;;;;;;14.40;11.20;;;14.60;99.90;;;;;;5026886;28;20449;-52
2023/04/18 11:35:12;;;;;;;13.10;11.37;;;14.60;99.90;;;;;;5028409;28;20470;-52
2023/04/18 11:37:40;;;;;;;14.50;11.57;;;14.60;99.90;;;;;;5030482;28;20547;-51
2023/04/18 11:40:10;;;;;;;11.83;10.63;;;14.50;99.90;;;;;;5028736;28;20485;-51
2023/04/18 11:42:39;;;;;;;16.37;10.40;;;14.60;99.90;;;;;;5030414;28;20928;-52
2023/04/18 11:45:10;;;;;;;13.70;10.33;;;14.70;99.90;;;;;;5029269;28;20474;-52
2023/04/18 11:47:37;;;;;;;13.93;11.50;;;14.80;99.90;;;;;;5027651;28;20462;-49
2023/04/18 11:50:08;;;;;;;16.30;10.90;;;14.70;99.90;;;;;;5029952;28;20452;-49
2023/04/18 11:52:37;;;;;;;12.50;11.20;;;15.30;99.90;;;;;;5031489;28;20463;-49
2023/04/18 11:55:17;;;;;;;12.07;10.87;;;14.80;99.90;;;;;;5032051;28;20458;-50
2023/04/18 11:57:51;;;;;;;12.00;10.80;;;14.80;99.90;;;;;;5030464;28;20477;-49
2023/04/18 12:00:20;;;;;;;12.97;11.67;;;15.00;99.90;;;;;;5031139;28;20538;-49
2023/04/18 12:02:49;;;;;;;12.60;11.07;;;14.80;99.90;;;;;;5021978;28;20420;-48
2023/04/18 12:05:25;;;;;;;13.93;12.47;;;14.70;99.90;;;;;;5013261;28;20496;-49
2023/04/18 12:07:52;;;;;;;15.03;12.57;;;14.80;99.90;;;;;;5031882;28;20434;-50
2023/04/18 12:10:29;;;;;;;22.30;13.32;;;14.50;99.90;;;;;;5031312;28;20472;-49
2023/04/18 12:12:58;;;;;;;46.37;15.37;;;14.80;99.90;;;;;;5030819;28;20291;-50
2023/04/18 12:15:27;;;;;;;15.30;13.60;;;14.70;99.90;;;;;;5031858;28;20786;-49
2023/04/18 12:17:58;;;;;;;29.50;14.70;;;14.60;99.90;;;;;;5031589;28;20823;-50
2023/04/18 12:20:32;;;;;;;15.70;13.83;;;14.60;99.90;;;;;;5031215;28;20479;-48
2023/04/18 12:22:59;;;;;;;15.50;13.90;;;14.60;99.90;;;;;;5031513;28;20475;-48
2023/04/18 12:25:27;;;;;;;16.03;14.33;;;14.50;99.90;;;;;;5030214;28;20843;-51
2023/04/18 12:27:57;;;;;;;15.03;13.50;;;14.60;99.90;;;;;;5030891;28;20449;-49
2023/04/18 12:30:27;;;;;;;15.70;14.10;;;14.70;99.90;;;;;;5031039;28;20422;-49
2023/04/18 12:32:55;;;;;;;20.13;13.40;;;14.60;99.90;;;;;;5030050;28;20537;-50
2023/04/18 12:35:23;;;;;;;16.13;14.07;;;14.80;99.90;;;;;;5031344;28;20412;-50
2023/04/18 12:37:52;;;;;;;18.37;13.50;;;15.00;99.90;;;;;;5029775;28;20848;-49
2023/04/18 12:40:20;;;;;;;15.23;13.73;;;15.10;99.90;;;;;;5041448;28;20578;-50